Nearby METAR Reports

 

KHOT - Hot Springs, Arkansas, USA
Distance from station: W 8mi, 14km
Updated: 12/15/2018 1:53pm
Overcast
Overcast
 Wind from varies
Wind: varies 5 mph , 7 km/h
Temperature: 50°F , 10°C
Wind Chill: 48°F , 9°C
Dew Point: 45°F , 7°C
Humidity: 82%
Barometer: 30.03 inHg , 1016.9 hPa
Clouds: Overcast
Visibility: 10 miles , 16 km
Cloud details: Overcast 1900 ft
2018/12/15 19:53 KHOT 151953Z AUTO VRB04KT 10SM OVC019 10/07 A3003 RMK AO2 SLP169 T01000072 TSNO
KMWT - Mount Ida, Arkansas, USA
Distance from station: W 36mi, 58km
Updated: 12/15/2018 8:53am
Overcast
Overcast
 Wind from calm
Wind: Calm
Temperature: 45°F , 7°C
Dew Point: 39°F , 4°C
Humidity: 81%
Barometer: 29.98 inHg , 1015.2 hPa
Clouds: Overcast
Visibility: 10 miles , 16 km
Cloud details: Overcast 1200 ft
2018/12/15 14:53 KMWT 151453Z AUTO 00000KT 10SM OVC012 07/04 A2998 RMK AO2 SLP158 T00720044 51014
 
KLIT - Little Rock, Arkansas, USA
Distance from station: ENE 45mi, 73km
Updated: 12/15/2018 8:53am
Overcast
Overcast
 Wind from NW
Wind: NW 12 mph , 19 km/h
Temperature: 46°F , 8°C
Wind Chill: 40°F , 4°C
Dew Point: 43°F , 6°C
Humidity: 87%
Barometer: 29.98 inHg , 1015.2 hPa
Clouds: Overcast
Visibility: 10 miles , 16 km
Cloud details: Partly cloudy 1500 ft
Overcast 2800 ft
2018/12/15 14:53 KLIT 151453Z 31010KT 10SM SCT015 OVC028 08/06 A2998 RMK AO2 SLP154 SCT015 V BKN T00780056 53018
KLRF - Little Rock Afb, Arkansas, USA
Distance from station: NE 56mi, 89km
Updated: 12/15/2018 9:40am
Light drizzle, Overcast
Light drizzle, Overcast
 Wind from NW
Wind: NW 8 mph , 13 km/h
Temperature: 48°F , 9°C
Wind Chill: 44°F , 7°C
Dew Point: 43°F , 6°C
Humidity: 82%
Barometer: 29.99 inHg , 1015.6 hPa
Summary: Light Drizzle
Clouds: Overcast
Visibility: 10 miles , 16 km
Cloud details: Overcast 1600 ft
2018/12/15 15:40 KLRF 151540Z AUTO 32007KT 10SM -DZ OVC016 09/06 A2999 RMK AO2 DZB40 SLP159 $